createdAt,value
2023-04-19T00:01:59.936Z,4.95
2023-04-19T00:04:26.895Z,5.05
2023-04-19T00:06:53.769Z,4.60
2023-04-19T00:09:20.448Z,4.82
2023-04-19T00:11:47.109Z,4.95
2023-04-19T00:14:14.240Z,4.93
2023-04-19T00:16:41.873Z,4.80
2023-04-19T00:19:08.603Z,4.65
2023-04-19T00:21:35.302Z,5.05
2023-04-19T00:24:03.223Z,4.63
2023-04-19T00:26:30.086Z,5.03
2023-04-19T00:28:57.215Z,4.53
2023-04-19T00:31:24.097Z,4.30
2023-04-19T00:33:50.953Z,3.95
2023-04-19T00:36:18.268Z,4.10
2023-04-19T00:38:47.002Z,4.00
2023-04-19T00:41:13.684Z,4.60
2023-04-19T00:43:40.397Z,3.88
2023-04-19T00:46:07.383Z,4.15
2023-04-19T00:48:36.332Z,4.25
2023-04-19T00:51:03.981Z,3.67
2023-04-19T00:53:31.285Z,3.95
2023-04-19T00:56:00.515Z,4.18
2023-04-19T00:58:31.390Z,3.97
2023-04-19T01:00:58.560Z,3.70
2023-04-19T01:03:27.255Z,3.25
2023-04-19T01:05:54.421Z,4.07
2023-04-19T01:08:21.120Z,3.45
2023-04-19T01:10:47.814Z,3.05
2023-04-19T01:13:15.809Z,3.50
2023-04-19T01:15:42.499Z,3.78
2023-04-19T01:18:09.254Z,3.85
2023-04-19T01:20:36.033Z,3.25
2023-04-19T01:23:02.811Z,3.78
2023-04-19T01:25:29.996Z,3.33
2023-04-19T01:27:56.753Z,3.40
2023-04-19T01:30:23.999Z,3.60
2023-04-19T01:32:50.891Z,3.40
2023-04-19T01:35:17.785Z,3.42
2023-04-19T01:37:44.508Z,3.33
2023-04-19T01:40:11.745Z,3.20
2023-04-19T01:42:38.412Z,3.60
2023-04-19T01:45:05.594Z,3.63
2023-04-19T01:47:32.249Z,3.65
2023-04-19T01:49:59.043Z,3.13
2023-04-19T01:52:25.705Z,3.58
2023-04-19T01:54:52.397Z,3.65
2023-04-19T01:57:19.207Z,3.90
2023-04-19T01:59:47.228Z,3.40
2023-04-19T02:02:13.957Z,3.67
2023-04-19T02:04:40.637Z,3.88
2023-04-19T02:07:08.036Z,3.63
2023-04-19T02:09:38.468Z,3.55
2023-04-19T02:12:05.503Z,3.55
2023-04-19T02:14:32.274Z,3.70
2023-04-19T02:16:58.964Z,4.00
2023-04-19T02:19:25.670Z,3.85
2023-04-19T02:21:53.668Z,3.88
2023-04-19T02:24:20.425Z,4.50
2023-04-19T02:26:47.285Z,3.60
2023-04-19T02:29:16.788Z,4.38
2023-04-19T02:31:45.217Z,4.20
2023-04-19T02:34:12.447Z,4.47
2023-04-19T02:36:39.244Z,4.18
2023-04-19T02:39:05.974Z,4.13
2023-04-19T02:41:32.609Z,3.45
2023-04-19T02:44:02.147Z,3.88
2023-04-19T02:46:28.859Z,4.05
2023-04-19T02:48:55.516Z,3.63
2023-04-19T02:51:22.979Z,4.00
2023-04-19T02:53:49.624Z,3.50
2023-04-19T02:56:16.374Z,4.50
2023-04-19T02:58:43.168Z,3.63
2023-04-19T03:01:10.563Z,3.83
2023-04-19T03:03:37.554Z,3.63
2023-04-19T03:06:04.914Z,3.78
2023-04-19T03:08:32.953Z,3.40
2023-04-19T03:10:59.622Z,3.70
2023-04-19T03:13:26.314Z,3.97
2023-04-19T03:15:53.045Z,3.58
2023-04-19T03:18:22.475Z,3.70
2023-04-19T03:20:50.512Z,3.92
2023-04-19T03:23:17.309Z,3.60
2023-04-19T03:25:46.120Z,3.63
2023-04-19T03:28:24.647Z,3.58
2023-04-19T03:31:10.097Z,3.47
2023-04-19T03:33:37.465Z,3.60
2023-04-19T03:36:04.923Z,3.22
2023-04-19T03:38:31.842Z,3.58
2023-04-19T03:40:59.460Z,3.42
2023-04-19T03:43:30.067Z,4.55
2023-04-19T03:45:56.716Z,3.33
2023-04-19T03:48:23.566Z,3.50
2023-04-19T03:50:50.286Z,3.25
2023-04-19T03:53:18.901Z,3.55
2023-04-19T03:55:45.866Z,3.22
2023-04-19T03:58:12.534Z,2.83
2023-04-19T04:00:47.889Z,3.65
2023-04-19T04:03:15.560Z,3.25
2023-04-19T04:05:42.447Z,3.08
2023-04-19T04:08:09.705Z,3.40
2023-04-19T04:10:36.475Z,3.15
2023-04-19T04:13:03.310Z,4.18
2023-04-19T04:15:40.961Z,3.22
2023-04-19T04:18:10.846Z,2.80
2023-04-19T04:20:37.902Z,3.17
2023-04-19T04:23:09.030Z,2.70
2023-04-19T04:25:39.129Z,2.60
2023-04-19T04:28:09.524Z,3.00
2023-04-19T04:30:40.547Z,2.90
2023-04-19T04:33:11.882Z,2.42
2023-04-19T04:35:39.886Z,2.45
2023-04-19T04:38:21.530Z,2.92
2023-04-19T04:40:53.636Z,2.55
2023-04-19T04:43:25.559Z,3.13
2023-04-19T04:45:55.458Z,2.63
2023-04-19T04:48:22.498Z,2.35
2023-04-19T04:50:49.392Z,2.40
2023-04-19T04:53:16.131Z,2.90
2023-04-19T04:55:45.505Z,2.20
2023-04-19T04:58:13.605Z,2.88
2023-04-19T05:00:59.041Z,2.33
2023-04-19T05:03:27.574Z,2.58
2023-04-19T05:05:58.148Z,2.50
2023-04-19T05:08:26.838Z,2.17
2023-04-19T05:10:57.577Z,2.20
2023-04-19T05:13:27.648Z,2.45
2023-04-19T05:15:55.316Z,2.40
2023-04-19T05:18:22.052Z,2.47
2023-04-19T05:20:49.525Z,2.38
2023-04-19T05:23:21.354Z,2.13
2023-04-19T05:25:50.123Z,2.38
2023-04-19T05:28:17.272Z,2.10
2023-04-19T05:31:01.898Z,2.28
2023-04-19T05:33:33.873Z,2.00
2023-04-19T05:36:01.352Z,2.10
2023-04-19T05:38:28.605Z,2.33
2023-04-19T05:40:58.182Z,2.30
2023-04-19T05:43:24.864Z,2.17
2023-04-19T05:45:51.619Z,2.47
2023-04-19T05:48:19.035Z,2.00
2023-04-19T05:51:00.390Z,2.20
2023-04-19T05:53:47.407Z,1.80
2023-04-19T05:56:14.174Z,2.53
2023-04-19T05:58:40.927Z,2.30
2023-04-19T06:01:08.161Z,1.95
2023-04-19T06:03:35.101Z,2.10
2023-04-19T06:06:02.133Z,2.00
2023-04-19T06:08:29.024Z,2.08
2023-04-19T06:11:02.149Z,2.10
2023-04-19T06:13:31.732Z,2.40
2023-04-19T06:15:58.548Z,2.03
2023-04-19T06:18:25.245Z,2.08
2023-04-19T06:20:53.145Z,2.08
2023-04-19T06:23:19.991Z,2.13
2023-04-19T06:25:48.733Z,2.28
2023-04-19T06:28:15.754Z,2.38
2023-04-19T06:30:42.488Z,1.98
2023-04-19T06:33:09.120Z,2.17
2023-04-19T06:35:35.757Z,2.30
2023-04-19T06:38:02.543Z,2.38
2023-04-19T06:40:29.391Z,2.22
2023-04-19T06:42:56.181Z,2.10
2023-04-19T06:45:22.996Z,2.00
2023-04-19T06:47:49.753Z,2.17
2023-04-19T06:50:16.814Z,1.70
2023-04-19T06:52:43.542Z,2.03
2023-04-19T06:55:10.353Z,1.48
2023-04-19T06:57:37.053Z,1.98
2023-04-19T07:00:04.758Z,1.52
2023-04-19T07:02:31.629Z,1.80
2023-04-19T07:04:58.354Z,1.85
2023-04-19T07:07:25.001Z,1.88
2023-04-19T07:09:51.676Z,1.55
2023-04-19T07:12:18.361Z,1.90
2023-04-19T07:14:44.974Z,1.65
2023-04-19T07:17:13.081Z,1.23
2023-04-19T07:19:39.836Z,1.52
2023-04-19T07:22:06.522Z,1.55
2023-04-19T07:24:33.253Z,1.27
2023-04-19T07:26:59.915Z,1.60
2023-04-19T07:29:26.656Z,1.40
2023-04-19T07:31:55.336Z,1.63
2023-04-19T07:34:22.169Z,1.45
2023-04-19T07:36:48.870Z,1.42
2023-04-19T07:39:15.535Z,1.60
2023-04-19T07:41:42.183Z,1.95
2023-04-19T07:44:08.859Z,1.60
2023-04-19T07:46:35.602Z,1.50
2023-04-19T07:49:02.549Z,1.50
2023-04-19T07:51:29.177Z,1.58
2023-04-19T07:53:55.971Z,1.30
2023-04-19T07:56:23.110Z,1.20
2023-04-19T07:59:04.278Z,1.33
2023-04-19T08:01:34.193Z,1.48
2023-04-19T08:04:01.233Z,1.70
2023-04-19T08:06:29.688Z,1.42
2023-04-19T08:08:56.777Z,1.30
2023-04-19T08:11:24.996Z,1.23
2023-04-19T08:14:04.768Z,1.17
2023-04-19T08:19:05.887Z,1.63
2023-04-19T08:21:40.715Z,1.10
2023-04-19T08:24:08.713Z,1.40
2023-04-19T08:26:35.495Z,1.10
2023-04-19T08:29:02.403Z,1.33
2023-04-19T08:31:29.248Z,1.20
2023-04-19T08:33:56.899Z,1.40
2023-04-19T08:36:36.970Z,1.48
2023-04-19T08:39:12.259Z,1.30
2023-04-19T08:41:41.765Z,1.10
2023-04-19T08:44:11.883Z,1.10
2023-04-19T08:46:38.688Z,1.25
2023-04-19T08:49:05.977Z,1.13
2023-04-19T08:51:33.824Z,1.15
2023-04-19T08:54:02.702Z,1.30
2023-04-19T08:56:35.226Z,1.48
2023-04-19T08:59:19.704Z,1.33
2023-04-19T09:01:47.165Z,1.33
2023-04-19T09:04:31.695Z,1.55
2023-04-19T09:07:00.563Z,1.35
2023-04-19T09:09:36.977Z,1.27
2023-04-19T09:12:18.157Z,1.50
2023-04-19T09:17:18.698Z,1.70
2023-04-19T09:19:47.144Z,1.58
2023-04-19T09:22:14.646Z,1.33
2023-04-19T09:27:12.213Z,1.55
2023-04-19T09:29:39.491Z,1.58
2023-04-19T09:32:06.240Z,1.30
2023-04-19T09:34:33.049Z,1.80
2023-04-19T09:37:21.523Z,1.48
2023-04-19T09:39:54.862Z,1.30
2023-04-19T09:42:38.650Z,1.65
2023-04-19T09:47:38.561Z,1.80
2023-04-19T09:50:21.889Z,2.00
2023-04-19T09:52:50.796Z,2.72
2023-04-19T09:57:48.739Z,1.75
2023-04-19T10:00:16.022Z,1.70
2023-04-19T10:02:43.482Z,1.60
2023-04-19T10:05:20.594Z,1.58
2023-04-19T10:07:49.940Z,1.55
2023-04-19T10:10:22.549Z,1.60
2023-04-19T10:15:31.461Z,1.50
2023-04-19T10:18:07.523Z,1.45
2023-04-19T10:20:37.772Z,1.98
2023-04-19T10:23:08.165Z,1.73
2023-04-19T10:25:37.634Z,1.70
2023-04-19T10:28:04.582Z,8.40
2023-04-19T10:30:31.539Z,4.65
2023-04-19T10:33:00.015Z,3.25
2023-04-19T10:35:33.590Z,2.17
2023-04-19T10:38:12.724Z,2.00
2023-04-19T10:40:57.622Z,1.73
2023-04-19T10:43:25.364Z,1.88
2023-04-19T10:45:52.773Z,2.30
2023-04-19T10:48:33.274Z,1.98
2023-04-19T10:51:02.247Z,1.85
2023-04-19T10:53:44.319Z,2.03
2023-04-19T10:56:11.548Z,2.13
2023-04-19T10:59:00.414Z,2.10
2023-04-19T11:01:37.937Z,1.80
2023-04-19T11:04:05.470Z,1.83
2023-04-19T11:06:33.870Z,2.22
2023-04-19T11:09:02.942Z,1.95
2023-04-19T11:11:34.462Z,2.28
2023-04-19T11:14:02.804Z,1.77
2023-04-19T11:16:44.450Z,1.90
2023-04-19T11:19:19.718Z,1.80
2023-04-19T11:21:47.461Z,2.00
2023-04-19T11:24:16.134Z,2.10
2023-04-19T11:26:44.063Z,1.52
2023-04-19T11:29:10.860Z,2.08
2023-04-19T11:31:37.954Z,2.00
2023-04-19T11:34:05.222Z,1.88
2023-04-19T11:36:32.440Z,2.10
2023-04-19T11:38:59.129Z,2.42
2023-04-19T11:41:25.965Z,3.45
2023-04-19T11:43:52.686Z,3.47
2023-04-19T11:46:19.326Z,2.90
2023-04-19T11:48:53.451Z,2.30
2023-04-19T11:51:20.730Z,4.50
2023-04-19T11:53:47.414Z,3.05
2023-04-19T11:56:15.258Z,2.65
2023-04-19T11:58:48.472Z,2.95
2023-04-19T12:01:19.488Z,2.50
2023-04-19T12:03:52.149Z,1.83
2023-04-19T12:06:28.025Z,1.77
2023-04-19T12:08:56.177Z,2.05
2023-04-19T12:11:26.236Z,2.05
2023-04-19T12:14:09.393Z,2.20
2023-04-19T12:16:36.262Z,1.70
2023-04-19T12:19:14.197Z,2.60
2023-04-19T12:21:41.524Z,2.97
2023-04-19T12:24:08.364Z,3.25
2023-04-19T12:26:36.194Z,2.30
2023-04-19T12:29:03.721Z,2.38
2023-04-19T12:31:33.602Z,2.25
2023-04-19T12:34:00.421Z,2.00
2023-04-19T12:36:27.992Z,1.55
2023-04-19T12:38:54.635Z,1.80
2023-04-19T12:41:21.315Z,2.83
2023-04-19T12:43:48.033Z,2.00
2023-04-19T12:46:14.734Z,1.60
2023-04-19T12:48:41.348Z,1.55
2023-04-19T12:51:08.869Z,1.70
2023-04-19T12:53:35.665Z,2.10
2023-04-19T12:56:02.378Z,2.10
2023-04-19T12:58:29.043Z,2.22
2023-04-19T13:00:55.757Z,1.75
2023-04-19T13:03:22.551Z,1.70
2023-04-19T13:05:49.556Z,1.95
2023-04-19T13:08:17.048Z,1.90
2023-04-19T13:10:43.897Z,1.90
2023-04-19T13:13:10.757Z,1.90
2023-04-19T13:15:38.209Z,1.73
2023-04-19T13:18:05.131Z,1.60
2023-04-19T13:20:31.975Z,1.65
2023-04-19T13:22:58.737Z,1.77
2023-04-19T13:25:25.502Z,1.95
2023-04-19T13:27:52.426Z,2.15
2023-04-19T13:30:19.197Z,1.80
2023-04-19T13:32:45.983Z,2.13
2023-04-19T13:35:12.683Z,2.13
2023-04-19T13:37:40.577Z,1.80
2023-04-19T13:40:18.912Z,1.83
2023-04-19T13:42:46.595Z,1.80
2023-04-19T13:45:14.377Z,2.00
2023-04-19T13:47:41.271Z,2.20
2023-04-19T13:50:08.377Z,2.05
2023-04-19T13:52:35.133Z,1.85
2023-04-19T13:55:01.938Z,1.55
2023-04-19T13:57:28.741Z,1.70
2023-04-19T13:59:55.431Z,1.40
2023-04-19T14:02:22.200Z,1.52
2023-04-19T14:04:48.992Z,1.55
2023-04-19T14:07:15.663Z,1.52
2023-04-19T14:09:42.388Z,1.38
2023-04-19T14:12:09.370Z,1.60
2023-04-19T14:14:36.321Z,1.48
2023-04-19T14:17:03.260Z,1.25
2023-04-19T14:19:30.004Z,1.42
2023-04-19T14:21:56.730Z,1.30
2023-04-19T14:24:23.388Z,1.35
2023-04-19T14:26:57.045Z,0.90
2023-04-19T14:29:36.142Z,1.23
2023-04-19T14:32:16.589Z,1.33
2023-04-19T14:34:49.918Z,1.30
2023-04-19T14:37:17.073Z,1.50
2023-04-19T14:39:45.661Z,1.83
2023-04-19T14:42:12.397Z,1.15
2023-04-19T14:44:39.506Z,1.13
2023-04-19T14:47:06.271Z,1.60
2023-04-19T14:49:32.961Z,1.38
2023-04-19T14:51:59.630Z,1.50
2023-04-19T14:54:26.278Z,1.60
2023-04-19T14:56:53.592Z,1.35
2023-04-19T14:59:20.429Z,1.38
2023-04-19T15:01:47.497Z,1.30
2023-04-19T15:04:14.536Z,1.55
2023-04-19T15:06:41.509Z,1.40
2023-04-19T15:09:08.420Z,1.20
2023-04-19T15:11:35.179Z,1.50
2023-04-19T15:14:02.297Z,1.00
2023-04-19T15:16:29.269Z,1.30
2023-04-19T15:18:55.954Z,1.42
2023-04-19T15:21:24.631Z,1.30
2023-04-19T15:23:51.624Z,1.67
2023-04-19T15:26:18.397Z,1.42
2023-04-19T15:28:45.265Z,1.55
2023-04-19T15:31:11.998Z,1.70
2023-04-19T15:33:38.741Z,1.60
2023-04-19T15:36:05.666Z,1.70
2023-04-19T15:38:33.075Z,1.65
2023-04-19T15:41:03.465Z,1.48
2023-04-19T15:43:30.370Z,1.60
2023-04-19T15:45:57.026Z,1.63
2023-04-19T15:48:23.880Z,1.60
2023-04-19T15:50:50.673Z,1.50
2023-04-19T15:53:17.402Z,1.70
2023-04-19T15:55:46.460Z,1.75
2023-04-19T15:58:13.300Z,2.15
2023-04-19T16:00:40.072Z,1.60
2023-04-19T16:03:09.800Z,2.10
2023-04-19T16:05:36.595Z,1.80
2023-04-19T16:08:04.344Z,1.70
2023-04-19T16:10:31.286Z,1.73
2023-04-19T16:12:58.015Z,1.70
2023-04-19T16:15:24.871Z,1.77
2023-04-19T16:17:52.396Z,1.83
2023-04-19T16:20:20.480Z,1.65
2023-04-19T16:22:47.869Z,1.58
2023-04-19T16:25:15.941Z,2.15
2023-04-19T16:27:44.156Z,1.75
2023-04-19T16:30:12.262Z,2.13
2023-04-19T16:32:40.266Z,1.60
2023-04-19T16:35:08.000Z,2.17
2023-04-19T16:37:35.481Z,1.85
2023-04-19T16:40:09.294Z,2.00
2023-04-19T16:42:37.073Z,1.80
2023-04-19T16:45:04.903Z,1.88
2023-04-19T16:47:32.149Z,2.03
2023-04-19T16:49:59.673Z,2.20
2023-04-19T16:52:28.786Z,2.05
2023-04-19T16:54:55.683Z,2.95
2023-04-19T16:57:23.627Z,2.53
2023-04-19T16:59:50.554Z,2.38
2023-04-19T17:02:17.503Z,2.10
2023-04-19T17:04:44.616Z,2.13
2023-04-19T17:07:12.086Z,2.08
2023-04-19T17:09:38.871Z,2.10
2023-04-19T17:12:06.230Z,2.83
2023-04-19T17:14:34.614Z,3.15
2023-04-19T17:17:01.951Z,2.40
2023-04-19T17:19:28.623Z,2.08
2023-04-19T17:21:55.478Z,2.17
2023-04-19T17:24:22.376Z,2.10
2023-04-19T17:26:49.834Z,1.83
2023-04-19T17:29:16.715Z,2.17
2023-04-19T17:31:43.699Z,2.17
2023-04-19T17:34:10.431Z,2.10
2023-04-19T17:36:37.132Z,2.10
2023-04-19T17:39:03.805Z,2.78
2023-04-19T17:41:30.500Z,3.03
2023-04-19T17:43:57.148Z,4.90
2023-04-19T17:46:24.014Z,3.50
2023-04-19T17:48:50.741Z,4.07
2023-04-19T17:51:17.464Z,3.38
2023-04-19T17:53:44.266Z,2.70
2023-04-19T17:56:10.999Z,3.42
2023-04-19T17:58:37.678Z,3.13
2023-04-19T18:01:04.579Z,2.58
2023-04-19T18:03:31.542Z,2.75
2023-04-19T18:05:58.391Z,2.10
2023-04-19T18:08:25.205Z,2.72
2023-04-19T18:10:51.880Z,2.40
2023-04-19T18:13:18.596Z,2.58
2023-04-19T18:15:45.482Z,2.33
2023-04-19T18:18:12.150Z,2.47
2023-04-19T18:20:38.793Z,2.35
2023-04-19T18:23:05.429Z,2.10
2023-04-19T18:25:35.165Z,2.65
2023-04-19T18:28:02.004Z,2.25
2023-04-19T18:30:28.658Z,2.30
2023-04-19T18:32:55.399Z,2.60
2023-04-19T18:35:22.261Z,2.53
2023-04-19T18:37:48.942Z,2.70
2023-04-19T18:40:15.848Z,2.70
2023-04-19T18:42:42.595Z,2.55
2023-04-19T18:45:09.823Z,2.15
2023-04-19T18:47:36.486Z,2.13
2023-04-19T18:50:06.103Z,2.13
2023-04-19T18:52:35.499Z,3.05
2023-04-19T18:55:02.921Z,2.65
2023-04-19T18:57:34.252Z,3.03
2023-04-19T19:00:01.943Z,3.28
2023-04-19T19:02:28.726Z,2.88
2023-04-19T19:05:01.370Z,2.55
2023-04-19T19:10:01.656Z,3.20
2023-04-19T19:12:31.200Z,3.25
2023-04-19T19:14:58.001Z,3.58
2023-04-19T19:17:27.842Z,3.53
2023-04-19T19:19:55.064Z,3.13
2023-04-19T19:22:28.170Z,3.90
2023-04-19T19:24:55.760Z,3.05
2023-04-19T19:27:22.771Z,2.75
2023-04-19T19:29:49.720Z,2.60
2023-04-19T19:32:16.475Z,3.03
2023-04-19T19:34:54.796Z,2.65
2023-04-19T19:37:26.823Z,2.08
2023-04-19T19:39:56.220Z,2.30
2023-04-19T19:42:23.581Z,2.60
2023-04-19T19:44:54.184Z,2.70
2023-04-19T19:47:21.624Z,2.28
2023-04-19T19:50:23.651Z,2.33
2023-04-19T19:52:35.948Z,2.38
2023-04-19T19:55:02.846Z,1.88
2023-04-19T19:58:16.374Z,1.70
2023-04-19T20:00:39.837Z,2.08
2023-04-19T20:03:06.558Z,2.47
2023-04-19T20:05:34.008Z,1.83
2023-04-19T20:08:12.540Z,2.05
2023-04-19T20:10:41.053Z,2.17
2023-04-19T20:13:07.822Z,2.15
2023-04-19T20:15:36.431Z,2.05
2023-04-19T20:18:04.354Z,2.10
2023-04-19T20:20:31.104Z,1.60
2023-04-19T20:22:57.842Z,2.05
2023-04-19T20:25:24.528Z,2.25
2023-04-19T20:27:51.146Z,2.08
2023-04-19T20:30:17.844Z,2.17
2023-04-19T20:32:44.592Z,2.30
2023-04-19T20:35:12.266Z,2.40
2023-04-19T20:37:42.413Z,2.22
2023-04-19T20:40:11.704Z,1.77
2023-04-19T20:42:38.589Z,1.83
2023-04-19T20:45:06.927Z,1.70
2023-04-19T20:47:33.759Z,1.98
2023-04-19T20:50:00.502Z,1.80
2023-04-19T20:52:27.125Z,2.15
2023-04-19T20:54:55.526Z,2.03
2023-04-19T20:57:22.422Z,1.80
2023-04-19T20:59:49.122Z,2.10
2023-04-19T21:02:16.002Z,1.92
2023-04-19T21:04:43.125Z,1.73
2023-04-19T21:07:09.879Z,1.85
2023-04-19T21:09:36.998Z,1.88
2023-04-19T21:12:03.964Z,2.05
2023-04-19T21:14:33.310Z,1.88
2023-04-19T21:17:03.724Z,2.20
2023-04-19T21:19:30.622Z,2.22
2023-04-19T21:21:58.354Z,2.33
2023-04-19T21:24:25.032Z,1.80
2023-04-19T21:26:51.719Z,1.70
2023-04-19T21:29:18.732Z,1.85
2023-04-19T21:31:45.751Z,1.58
2023-04-19T21:34:12.531Z,2.22
2023-04-19T21:36:39.203Z,2.00
2023-04-19T21:39:05.930Z,1.90
2023-04-19T21:41:32.588Z,2.00
2023-04-19T21:43:59.251Z,2.08
2023-04-19T21:46:26.007Z,1.77
2023-04-19T21:48:55.557Z,1.85
2023-04-19T21:51:22.618Z,2.05
2023-04-19T21:53:49.286Z,1.90
2023-04-19T21:56:16.092Z,1.42
2023-04-19T21:58:42.707Z,1.92
2023-04-19T22:01:10.636Z,1.77
2023-04-19T22:03:37.608Z,2.00
2023-04-19T22:06:04.727Z,1.92
2023-04-19T22:08:32.963Z,2.08
2023-04-19T22:11:00.270Z,1.83
2023-04-19T22:13:28.183Z,2.00
2023-04-19T22:15:56.958Z,2.10
2023-04-19T22:18:23.964Z,2.03
2023-04-19T22:20:52.009Z,2.35
2023-04-19T22:23:19.107Z,2.15
2023-04-19T22:25:45.997Z,1.98
2023-04-19T22:28:12.792Z,2.20
2023-04-19T22:30:39.554Z,2.35
2023-04-19T22:33:06.422Z,2.70
2023-04-19T22:35:33.128Z,2.42
2023-04-19T22:37:59.780Z,2.25
2023-04-19T22:40:26.498Z,2.40
2023-04-19T22:42:53.186Z,1.80
2023-04-19T22:45:19.974Z,1.98
2023-04-19T22:47:47.964Z,2.38
2023-04-19T22:50:14.687Z,1.75
2023-04-19T22:52:41.641Z,1.90
2023-04-19T22:55:09.983Z,1.90
2023-04-19T22:57:36.650Z,2.10
2023-04-19T23:00:05.325Z,1.58
2023-04-19T23:02:32.200Z,1.67
2023-04-19T23:05:00.515Z,1.60
2023-04-19T23:07:28.693Z,1.77
2023-04-19T23:09:56.047Z,2.10
2023-04-19T23:12:23.884Z,2.00
2023-04-19T23:14:50.906Z,1.90
2023-04-19T23:17:17.980Z,1.90
2023-04-19T23:19:44.720Z,1.60
2023-04-19T23:22:11.342Z,1.90
2023-04-19T23:24:38.061Z,1.77
2023-04-19T23:27:04.860Z,1.67
2023-04-19T23:29:31.582Z,1.70
2023-04-19T23:31:58.295Z,1.70
2023-04-19T23:34:25.088Z,1.65
2023-04-19T23:36:51.863Z,1.75
2023-04-19T23:39:19.137Z,2.00
2023-04-19T23:41:46.110Z,1.73
2023-04-19T23:44:12.792Z,1.77
2023-04-19T23:46:39.772Z,1.70
2023-04-19T23:49:08.237Z,1.90
2023-04-19T23:51:34.892Z,1.70
2023-04-19T23:54:01.639Z,2.03
2023-04-19T23:56:28.264Z,1.92
2023-04-19T23:58:54.909Z,1.73
